Terminal Aerodrome Forecast
Issued by NWS

Home | Current Version | Previous Version | Text Only | Print | Product List | Glossary On
Versions: 1 2 3 4 5 6 7 8 9 10 11 12 13 14 15 16 17 18
375
FTUS41 KGYX 011720
TAFHIE
TAF
KHIE 011720Z 0118/0218 VRB04KT P6SM -SHRA SCT025 BKN045 OVC060
     FM020000 VRB03KT P6SM -SHRA BKN025 OVC040
     FM020600 13004KT 5SM -SHRA BR BKN012 OVC020
     FM021400 10004KT 3SM -SHRA BR BKN008 OVC012=

USA.gov is the U.S. government's official web portal to all federal, state and local government web resources and services.